Airfield :
LOGIN :

Register | Disclaimer

   EN    FR    IT 

 










Legend :    VFR   Marginal VFR   IFR   Intensive IFR   Very Intensive IFR
Visi :
Ceiling :
>= 8 km
>= 3000ft
5 to 8 km
1000 to 3000 ft
1500m to 5 km
500 to 1000 ft
800 to 1500m
200 to 500 ft
< 800m
< 200 ft
Symbols :   Thunderstorms  Fog  Heavy snow  Heavy precipitations  Wind > 20 kt
SIGMETs :     Misc.  Thunderstorms  Icing  Turbulence  Mountain Waves  Volcanic Ashes






- Airport Elevation : 93 ft
- IATA code : HDF


EDAH - Heringsdorf

CURRENT METAR :
  • 021220Z 07008KT 030V090 9999 FEW035 04/M01 Q1027

EXPIRED METARs :
  • 021150Z 08007KT 9999 OVC033 04/M00 Q1028
  • 021120Z 10005KT 050V120 9999 OVC031 03/M00 Q1028
  • 021050Z 10007KT 060V120 9999 BKN034 03/M01 Q1028
  • 021020Z 10006KT 9999 BKN035 03/M01 Q1029
  • 020950Z 08008KT 9999 OVC034 02/M01 Q1028

TAF TAF EDAH
Valid from the 02 at 12:00 until the 02 at 21:00 UTC


021100Z 0212/0221 07006KT 9999 BKN030



MET'MAP, your aeronautical weather chart ! - Copyright ORBIFLY December 2007 - Disclaimer

ORBIFLY MET'MAP TEAM :

Programming & Development : Alexandra Zaïnal
Original concept : Baudouin d'Aumeries
Technical & hardware support : Manuel Goepfert
Assistance : Marc-Olivier Méhu




SOURCES & CREDITS :

   NOAA